Sharpsburg, NC (27878)

6:45 AM EDT on April 27, 2015 (GMT -0400)
Martineer | | Change Station
CLOSE
Current Station
Personal Weather Station
Location: Rocky Mount, NC
Elevation: 132 ft
Nearby Weather Stations

Elev 132 ft 35.88 °N, 77.80 °W | Updated 27 seconds ago

Fog
Fog
42.1 °F
Feels Like 42 °F
N
0.0
Wind Variable Wind from SW
Gusts 0.0 mph

Today
High -- | Low -- °F
--% Chance of Precip.
Yesterday
High -- | Low -- °F
Precip. -- in
6:23 AM 7:54 PM
Waxing Gibbous, 64% visible
Pressure 29.77 in
Visibility 8.0 miles
Clouds Clear
Windchill 42 °F
Dew Point 42 °F
Humidity 98%
Rainfall 0.00 in
Snow Depth Not available.
UV 0 out of 12
Pollen 7.20 out of 12
Air Quality Not available.
Flu Activity Sporadic
SPECI KRWI 271040Z AUTO 00000KT 8SM CLR 06/06 A2977 RMK AO2 T00610056

More Conditions Fewer Conditions

Pressure 29.77 in
Visibility 8.0 miles
Clouds Clear
Windchill 42 °F
Dew Point 42 °F
Humidity 98%
Rainfall 0.00 in
Snow Depth Not available.
UV 0 out of 12
Pollen 7.20 out of 12
Air Quality Not available.
Flu Activity Sporadic
SPECI KRWI 271040Z AUTO 00000KT 8SM CLR 06/06 A2977 RMK AO2 T00610056

More Conditions Fewer Conditions

10-Day Weather Forecast

Almanac

Astronomy

Apr. 27, 2015 Rise Set
Actual Time
Civil Twilight
Nautical Twilight
Astronomical Twilight
Moon
Length of Visible Light
Length of Day
Tomorrow will be .
, % of the Moon is Illuminated

Today's Extremes

State Highs State Lows

Community

WunderPhotos

Upload Photos

1,817,278 photos uploaded!

WunderBlogs® & News

Nearby

Air Quality

  Air Quality AQ Index Pollutant
Not available.

Snow Depth

Station Depth Elevation

Earthquake Activity

City Distance Mag. Time & Date
Minimum magnitude displayed is 2.5.

Coastal Water Temperatures

Place Temperature

Stations

Nearby Weather Stations

Station Location Temp. Windchill Dew Point Humidity Wind Precip. Elev Updated Type